createdAt,value
2022-12-08T00:00:30.098Z,255
2022-12-08T00:05:30.097Z,247.5
2022-12-08T00:15:30.096Z,237.5
2022-12-08T00:20:30.089Z,245
2022-12-08T00:25:30.104Z,245
2022-12-08T00:30:30.095Z,252.5
2022-12-08T00:35:30.097Z,270
2022-12-08T00:40:30.100Z,265
2022-12-08T00:45:30.182Z,267.5
2022-12-08T00:50:30.106Z,265
2022-12-08T00:55:30.097Z,270
2022-12-08T01:00:30.087Z,255
2022-12-08T01:05:30.100Z,265
2022-12-08T01:10:30.090Z,265
2022-12-08T01:15:30.108Z,252.5
2022-12-08T01:20:30.099Z,250
2022-12-08T01:25:30.094Z,242.5
2022-12-08T01:30:30.168Z,240
2022-12-08T01:35:30.099Z,240
2022-12-08T01:40:30.136Z,235
2022-12-08T01:45:30.100Z,232.5
2022-12-08T01:50:30.095Z,232.5
2022-12-08T01:55:30.098Z,235
2022-12-08T02:00:30.096Z,240
2022-12-08T02:05:30.104Z,247.5
2022-12-08T02:10:30.105Z,240
2022-12-08T02:15:30.149Z,230
2022-12-08T02:20:30.108Z,235
2022-12-08T02:25:30.108Z,235
2022-12-08T02:30:30.168Z,242.5
2022-12-08T02:35:30.095Z,232.5
2022-12-08T02:40:30.095Z,240
2022-12-08T02:45:30.098Z,240
2022-12-08T02:50:30.095Z,245
2022-12-08T02:55:30.101Z,240
2022-12-08T03:00:30.096Z,245
2022-12-08T03:05:30.109Z,257.5
2022-12-08T03:10:30.103Z,257.5
2022-12-08T03:15:30.150Z,252.5
2022-12-08T03:20:30.093Z,252.5
2022-12-08T03:25:30.098Z,252.5
2022-12-08T03:30:30.090Z,230
2022-12-08T03:35:30.096Z,235
2022-12-08T03:40:30.099Z,237.5
2022-12-08T03:45:30.093Z,232.5
2022-12-08T03:50:30.092Z,232.5
2022-12-08T03:55:30.100Z,232.5
2022-12-08T04:00:30.101Z,232.5
2022-12-08T04:05:30.099Z,230
2022-12-08T04:10:30.093Z,230
2022-12-08T04:15:30.105Z,255
2022-12-08T04:20:30.104Z,240
2022-12-08T04:25:30.096Z,247.5
2022-12-08T04:30:30.090Z,237.5
2022-12-08T04:35:30.096Z,237.5
2022-12-08T04:40:30.094Z,237.5
2022-12-08T04:45:30.102Z,237.5
2022-12-08T04:50:30.090Z,242.5
2022-12-08T04:55:30.095Z,235
2022-12-08T05:00:30.094Z,235
2022-12-08T05:05:30.096Z,252.5
2022-12-08T05:10:30.088Z,235
2022-12-08T05:15:30.098Z,232.5
2022-12-08T05:20:30.093Z,237.5
2022-12-08T05:25:30.100Z,230
2022-12-08T05:30:30.095Z,240
2022-12-08T05:35:30.106Z,240
2022-12-08T05:40:30.089Z,245
2022-12-08T05:45:30.151Z,240
2022-12-08T05:50:30.101Z,250
2022-12-08T05:55:30.099Z,242.5
2022-12-08T06:00:30.105Z,237.5
2022-12-08T06:05:30.092Z,235
2022-12-08T06:10:30.113Z,235
2022-12-08T06:15:30.103Z,235
2022-12-08T06:20:30.096Z,235
2022-12-08T06:25:30.101Z,232.5
2022-12-08T06:30:30.092Z,230
2022-12-08T06:35:30.105Z,230
2022-12-08T06:40:30.101Z,230
2022-12-08T06:45:30.194Z,222.5
2022-12-08T06:50:30.098Z,227.5
2022-12-08T07:00:30.164Z,227.5
2022-12-08T07:05:30.097Z,232.5
2022-12-08T07:10:30.091Z,240
2022-12-08T07:15:30.097Z,237.5
2022-12-08T07:20:30.101Z,242.5
2022-12-08T07:25:30.098Z,245
2022-12-08T07:30:30.266Z,255
2022-12-08T07:35:30.109Z,242.5
2022-12-08T07:40:30.092Z,240
2022-12-08T07:45:31.785Z,230
2022-12-08T07:50:30.101Z,240
2022-12-08T07:55:30.107Z,235
2022-12-08T08:00:30.158Z,235
2022-12-08T08:05:30.109Z,235
2022-12-08T08:10:30.106Z,230
2022-12-08T08:15:30.237Z,235
2022-12-08T08:20:30.093Z,237.5
2022-12-08T08:25:30.114Z,237.5
2022-12-08T08:30:30.091Z,237.5
2022-12-08T08:35:30.094Z,242.5
2022-12-08T08:40:30.092Z,240
2022-12-08T08:45:30.099Z,240
2022-12-08T08:50:34.398Z,242.5
2022-12-08T08:55:30.102Z,242.5
2022-12-08T09:00:30.089Z,245
2022-12-08T09:05:30.100Z,235
2022-12-08T09:10:30.106Z,235
2022-12-08T09:15:30.111Z,235
2022-12-08T09:20:30.094Z,242.5
2022-12-08T09:25:30.099Z,242.5
2022-12-08T09:30:30.101Z,230
2022-12-08T09:35:30.109Z,235
2022-12-08T09:40:30.103Z,237.5
2022-12-08T09:45:30.116Z,255
2022-12-08T09:50:30.100Z,242.5
2022-12-08T09:55:30.101Z,252.5
2022-12-08T10:00:30.102Z,247.5
2022-12-08T10:05:30.179Z,257.5
2022-12-08T10:10:30.095Z,235
2022-12-08T10:15:30.096Z,227.5
2022-12-08T10:20:30.096Z,235
2022-12-08T10:25:30.103Z,235
2022-12-08T10:30:30.092Z,230
2022-12-08T10:35:30.104Z,240
2022-12-08T10:40:30.094Z,230
2022-12-08T10:45:30.103Z,235
2022-12-08T10:50:30.107Z,232.5
2022-12-08T10:55:30.111Z,235
2022-12-08T11:00:30.248Z,245
2022-12-08T11:05:30.092Z,245
2022-12-08T11:10:30.094Z,250
2022-12-08T11:15:30.114Z,250
2022-12-08T11:20:30.092Z,247.5
2022-12-08T11:25:30.103Z,230
2022-12-08T11:30:30.099Z,245
2022-12-08T11:35:30.095Z,232.5
2022-12-08T11:40:30.097Z,237.5
2022-12-08T11:45:30.208Z,232.5
2022-12-08T11:50:30.094Z,237.5
2022-12-08T11:55:32.372Z,250
2022-12-08T12:00:30.103Z,237.5
2022-12-08T12:05:40.049Z,245
2022-12-08T12:10:30.090Z,245
2022-12-08T12:15:30.105Z,247.5
2022-12-08T12:20:30.099Z,227.5
2022-12-08T12:25:30.101Z,240
2022-12-08T12:30:30.141Z,225
2022-12-08T12:35:30.097Z,225
2022-12-08T12:40:30.098Z,240
2022-12-08T12:45:30.097Z,242.5
2022-12-08T12:50:30.104Z,215
2022-12-08T12:55:30.099Z,220
2022-12-08T13:00:30.091Z,222.5
2022-12-08T13:05:30.100Z,220
2022-12-08T13:10:30.098Z,222.5
2022-12-08T13:15:30.104Z,222.5
2022-12-08T13:20:30.101Z,220
2022-12-08T13:25:33.876Z,217.5
2022-12-08T13:30:30.171Z,220
2022-12-08T13:35:30.107Z,220
2022-12-08T13:40:30.099Z,220
2022-12-08T14:00:30.097Z,225
2022-12-08T14:06:03.087Z,230
2022-12-08T14:10:30.093Z,230
2022-12-08T14:15:34.110Z,225
2022-12-08T14:20:30.092Z,220
2022-12-08T14:25:30.102Z,225
2022-12-08T14:30:30.092Z,225
2022-12-08T14:35:30.102Z,225
2022-12-08T14:40:30.109Z,220
2022-12-08T14:45:30.106Z,225
2022-12-08T14:50:30.095Z,225
2022-12-08T14:55:30.111Z,217.5
2022-12-08T15:00:30.104Z,217.5
2022-12-08T15:05:30.100Z,222.5
2022-12-08T15:10:30.093Z,220
2022-12-08T15:15:30.106Z,217.5
2022-12-08T15:20:34.715Z,220
2022-12-08T15:25:30.120Z,227.5
2022-12-08T15:30:30.098Z,222.5
2022-12-08T15:35:30.107Z,225
2022-12-08T15:40:30.097Z,237.5
2022-12-08T15:45:30.099Z,232.5
2022-12-08T15:50:30.095Z,245
2022-12-08T15:55:31.188Z,240
2022-12-08T16:00:51.579Z,227.5
2022-12-08T16:06:01.555Z,232.5
2022-12-08T16:10:45.635Z,232.5
2022-12-08T16:20:58.826Z,257.5
2022-12-08T16:25:41.192Z,260
2022-12-08T16:30:30.111Z,240
2022-12-08T16:35:30.122Z,232.5
2022-12-08T16:40:30.103Z,235
2022-12-08T16:45:30.212Z,237.5
2022-12-08T16:50:30.093Z,232.5
2022-12-08T16:55:30.097Z,225
2022-12-08T17:00:30.090Z,225
2022-12-08T17:05:30.221Z,225
2022-12-08T17:10:30.093Z,227.5
2022-12-08T17:15:30.096Z,230
2022-12-08T17:20:30.099Z,227.5
2022-12-08T17:25:30.100Z,230
2022-12-08T17:30:30.102Z,227.5
2022-12-08T17:35:30.087Z,230
2022-12-08T17:40:30.093Z,235
2022-12-08T17:45:30.171Z,230
2022-12-08T17:50:30.101Z,240
2022-12-08T17:55:30.092Z,242.5
2022-12-08T18:00:30.096Z,235
2022-12-08T18:05:30.106Z,235
2022-12-08T18:10:30.100Z,242.5
2022-12-08T18:15:32.534Z,242.5
2022-12-08T18:20:30.108Z,235
2022-12-08T18:25:30.102Z,240
2022-12-08T18:30:30.168Z,245
2022-12-08T18:35:30.099Z,250
2022-12-08T18:40:30.098Z,245
2022-12-08T18:45:30.099Z,245
2022-12-08T18:50:30.087Z,237.5
2022-12-08T18:55:30.106Z,240
2022-12-08T19:00:30.097Z,250
2022-12-08T19:05:30.102Z,250
2022-12-08T19:10:30.098Z,250
2022-12-08T19:15:30.175Z,230
2022-12-08T19:20:30.100Z,235
2022-12-08T19:25:30.150Z,235
2022-12-08T19:30:30.093Z,230
2022-12-08T19:35:30.107Z,225
2022-12-08T19:40:30.092Z,225
2022-12-08T19:45:30.219Z,225
2022-12-08T19:50:30.170Z,225
2022-12-08T19:55:30.099Z,222.5
2022-12-08T20:00:30.093Z,225
2022-12-08T20:05:30.098Z,225
2022-12-08T20:10:30.105Z,237.5
2022-12-08T20:15:30.125Z,252.5
2022-12-08T20:20:30.108Z,250
2022-12-08T20:25:30.111Z,252.5
2022-12-08T20:30:30.099Z,255
2022-12-08T20:35:30.099Z,230
2022-12-08T20:40:30.096Z,235
2022-12-08T20:45:30.098Z,245
2022-12-08T20:50:30.122Z,252.5
2022-12-08T20:55:30.106Z,265
2022-12-08T21:00:30.211Z,260
2022-12-08T21:05:30.226Z,275
2022-12-08T21:10:30.106Z,240
2022-12-08T21:15:30.289Z,177.5
2022-12-08T21:20:30.176Z,190
2022-12-08T21:25:30.111Z,170
2022-12-08T21:30:30.130Z,207.5
2022-12-08T21:35:30.100Z,212.5
2022-12-08T21:40:30.236Z,205
2022-12-08T21:45:30.206Z,195
2022-12-08T21:50:30.098Z,192.5
2022-12-08T21:55:30.264Z,195
2022-12-08T22:00:30.352Z,155
2022-12-08T22:05:30.213Z,150
2022-12-08T22:10:30.242Z,162.5
2022-12-08T22:15:30.332Z,167.5
2022-12-08T22:20:30.144Z,172.5
2022-12-08T22:25:30.252Z,182.5
2022-12-08T22:30:32.868Z,185
2022-12-08T22:35:30.234Z,212.5
2022-12-08T22:40:30.174Z,217.5
2022-12-08T22:45:30.205Z,205
2022-12-08T22:50:30.163Z,205
2022-12-08T22:55:30.167Z,205
2022-12-08T23:00:30.109Z,217.5
2022-12-08T23:05:30.217Z,217.5
2022-12-08T23:10:30.222Z,232.5
2022-12-08T23:15:30.122Z,240
2022-12-08T23:20:30.166Z,217.5
2022-12-08T23:25:30.115Z,225
2022-12-08T23:30:30.248Z,227.5
2022-12-08T23:35:30.302Z,227.5
2022-12-08T23:40:30.113Z,227.5
2022-12-08T23:45:30.281Z,287.5
2022-12-08T23:50:30.325Z,355
2022-12-08T23:55:30.104Z,355
